METAR Data
IDs: Format: Raw Decoded Include TAF

Data at: 1249 UTC 16 Jul 2019

KLVS 161153Z AUTO 35003KT 10SM CLR 13/11 A3024 RMK AO2 SLP129 T01330111 10172 20133 53000
KLVS 161053Z AUTO 26004KT 10SM CLR 17/11 A3022 RMK AO2 SLP114 T01670111
KLVS 160953Z AUTO 32004KT 10SM CLR 17/12 A3023 RMK AO2 SLP111 T01670117
KLVS 160853Z AUTO 35004KT 10SM CLR 17/12 A3024 RMK AO2 SLP113 T01670122 58005
KLVS 160753Z AUTO 02006KT 10SM CLR 15/13 A3025 RMK AO2 SLP127 T01500133
KLVS 160653Z AUTO 04006KT 10SM CLR 15/14 A3025 RMK AO2 SLP124 T01500139 402940128
KLVS 160553Z AUTO 05003KT 10SM CLR 17/13 A3026 RMK AO2 SLP126 60000 T01670128 10267 20167 51006
KLVS 160453Z AUTO 27004KT 10SM CLR 19/13 A3026 RMK AO2 SLP127 T01890128
KLVS 160353Z AUTO 35004KT 10SM CLR 19/13 A3025 RMK AO2 SLP128 T01890128
KLVS 160253Z AUTO 02004KT 10SM CLR 19/12 A3024 RMK AO2 LTG DSNT E RAE00 SLP126 P0000 60000 T01940117 53012
KLVS 160219Z AUTO 05004KT 10SM FEW080 19/12 A3022 RMK AO2 LTG DSNT E AND SE RAE00 P0000 T01940122
KLVS 160204Z AUTO 02007KT 10SM VCTS FEW075 SCT095 BKN110 20/13 A3022 RMK AO2 RAE00 P0000 T02000128
KLVS 160153Z AUTO 07009KT 10SM -RA FEW055 BKN095 OVC110 19/13 A3022 RMK AO2 RAB31 SLP126 P0000 T01940128
KLVS 160129Z AUTO 35012KT 10SM VCTS FEW055 SCT080 BKN100 21/12 A3023 RMK AO2 T02060122
KLVS 160053Z AUTO 09012KT 10SM CLR 22/13 A3021 RMK AO2 WSHFT 0003 LTG DSNT E AND W SLP127 T02170128
KLVS 160023Z AUTO 02008KT 10SM SCT100 22/13 A3021 RMK AO2 WSHFT 0003 LTG DSNT NE AND E T02220128
KLVS 152353Z AUTO 00000KT 10SM CLR 26/12 A3019 RMK AO2 LTG DSNT NE SLP113 T02610122 10294 20261 56010
KLVS 152253Z AUTO 25008KT 10SM CLR 28/12 A3019 RMK AO2 LTG DSNT N SLP110 T02780117
KLVS 152153Z AUTO 23016KT 10SM CLR 28/12 A3021 RMK AO2 SLP115 T02830122
KLVS 152053Z AUTO 00000KT 10SM CLR 29/11 A3023 RMK AO2 LTG DSNT S AND SW SLP115 T02940111 58010
KLVS 151953Z AUTO VRB03KT 10SM CLR 28/11 A3024 RMK AO2 LTG DSNT SW SLP126 T02780106
KLVS 151853Z AUTO 00000KT 10SM CLR 28/11 A3026 RMK AO2 SLP131 T02780111
KLVS 151753Z AUTO VRB05KT 10SM CLR 27/12 A3026 RMK AO2 SLP133 T02720117 10272 20133 56005
KLVS 151653Z AUTO 19006KT 10SM CLR 24/12 A3027 RMK AO2 SLP140 T02440117
KLVS 151553Z AUTO 20008KT 10SM CLR 23/12 A3027 RMK AO2 SLP137 T02280122
KLVS 151453Z AUTO 21013KT 10SM CLR 21/13 A3028 RMK AO2 SLP140 T02110128 50000
KLVS 151353Z AUTO 17005KT 10SM CLR 18/13 A3030 RMK AO2 SLP148 T01780133
KLVS 151253Z AUTO 07007KT 10SM CLR 13/12 A3031 RMK AO2 SLP155 T01330117
KLVS 151153Z AUTO 25007KT 10SM CLR 13/12 A3028 RMK AO2 SLP142 60015 70038 T01330117 10156 20128 56013
KLVS 151053Z AUTO 30008KT 10SM CLR 13/12 A3030 RMK AO2 SLP152 T01330122
KLVS 150953Z AUTO 02006KT 10SM CLR 14/13 A3030 RMK AO2 SLP157 T01390128
KLVS 150853Z AUTO 29007G17KT 10SM SCT100 BKN120 14/13 A3033 RMK AO2 RAE47 SLP163 P0002 60015 T01440133 58022
KLVS 150753Z AUTO 35008KT 9SM -RA SCT060 OVC080 14/14 A3036 RMK AO2 SLP169 P0004 T01440139
KLVS 150653Z AUTO 06012KT 10SM -RA FEW070 OVC090 14/13 A3038 RMK AO2 LTG DSNT E SLP175 P0009 T01440133 402830122
KLVS 150625Z AUTO 04013KT 10SM -RA OVC085 14/13 A3039 RMK AO2 LTG DSNT E P0005 T01440133
KLVS 150553Z AUTO 36008KT 8SM VCTS RA FEW060 OVC075 15/13 A3041 RMK AO2 LTG DSNT E-S TSE00B04E44 SLP187 P0012 60023 T01500133 10278 20144 51022
KLVS 150550Z AUTO 35008KT 8SM VCTS RA BKN070 OVC090 15/13 A3041 RMK AO2 LTG DSNT NE-S TSE00B04E44 P0011
KLVS 150453Z AUTO 34018G29KT 10SM -TSRA OVC065 16/13 A3038 RMK AO2 PK WND 33043/0423 LTG DSNT ALQDS RAB00 SLP179 P0011 T01560133
KLVS 150353Z AUTO 32013KT 10SM TS BKN075 OVC090 19/14 A3033 RMK AO2 LTG DSNT W-NE TSB39 SLP158 T01890139
KLVS 150339Z AUTO 33015KT 10SM TS SCT075 BKN090 OVC110 20/13 A3032 RMK AO2 LTG DSNT W-NE TSB39 T02000133
KLVS 150330Z AUTO 10SM FEW080 SCT095 BKN110 20/14 A3032 RMK AO2 LTG DSNT W-NE T02000139
KLVS 150253Z AUTO 11004KT 10SM VCTS SCT100 21/13 A3029 RMK AO2 LTG DSNT W-NE RAE02 SLP142 P0000 60000 T02110128 53004
KLVS 150153Z AUTO 18010KT 10SM VCTS -RA FEW080 BKN100 BKN120 23/13 A3027 RMK AO2 RAB51 SLP138 P0000 T02330128
KLVS 150053Z AUTO 16008KT 10SM BKN110 26/13 A3028 RMK AO2 LTG DSNT NE SLP142 T02560128